Terminal Aerodrome Forecast
Issued by NWS Shreveport, LA

Home | Current Version | Previous Version | Text Only | Print | Product List | Glossary On
Versions: 1 2 3 4 5 6 7 8 9 10 11 12 13 14 15 16
000
FTUS44 KSHV 282340
TAFELD
TAF
KELD 282340Z 2900/2924 08011KT P6SM SKC
     FM290400 07005KT P6SM BKN012
      TEMPO 2910/2914 3SM BR OVC005
     FM291400 14006KT P6SM SCT015 BKN035
     FM291800 20012G18KT P6SM SCT050=

USA.gov is the U.S. government's official web portal to all federal, state and local government web resources and services.